UPSVAC Airport Information Service

Lisbon Humberto Delgado Airport

ICAO: LPPT Country: Portugal
Latitude: 38.7813 Longitude: -9.13591
Latest Arrival : UPSJUMP (LLBG-LPPT) Latest Departure : UPS104024 (LPPT-LEBL)


WX CaptureLIVE
Data provided by noaa.gov | Fetched at 10:43:30

METAR : LPPT 011000Z 00000KT 5000 BR FEW002 BKN004 12/12 Q1018

TAF : LPPT 010500Z 0106/0212 VRB02KT 5000 BR SCT005 PROB40 0106/0110 07005KT 0200 FG VV001 BECMG 0110/0112 9999 NSW FEW012 BECMG 0114/0116 31008KT SCT040 BECMG 0122/0201 VRB02KT SCT012 PROB30 0203/0210 1200 PRFG BKN002 BECMG 0210/0212 07005KT FEW018


Runway Data for LPPT
Data provided by openaviationdata.com

Runway ID Mag Var Hdg Length Elevation Surface ILS Freq ILS Id ILS Slope
3 -5 27° 12495 ft 340 ft Asphalt 109.1 ILI 3
17 -5 173° 7906 ft 340 ft Asphalt -- -- --
21 -5 207° 12495 ft 340 ft Asphalt 109.5 ILB 3
35 -5 353° 7906 ft 340 ft Asphalt -- -- --

Lisbon Humberto Delgado Airport, Portugal
Use only for reference purposes



Not for navigational purposes.